Time;durP1;ratioP1;P1;durP2;ratioP2;P2;SDS_P1;SDS_P2;PMS_P1;PMS_P2;Temp;Humidity;BMP_temperature;BMP_pressure;BME280_temperature;BME280_humidity;BME280_pressure;Samples;Min_cycle;Max_cycle;Signal;HPM_P1;HPM_P2
2022/09/27 00:04:52;;;;;;;166.83;67.00;;;8.60;99.90;;;;;;9856476;30;20464;-81
2022/09/27 00:09:53;;;;;;;347.43;83.67;;;8.70;99.90;;;;;;9860965;30;20132;-82
2022/09/27 00:14:53;;;;;;;303.80;79.20;;;8.80;99.90;;;;;;9861107;30;20506;-81
2022/09/27 00:19:57;;;;;;;317.77;79.40;;;8.70;99.90;;;;;;9858047;30;20024;-82
2022/09/27 00:24:57;;;;;;;224.07;71.83;;;8.70;99.90;;;;;;9860932;30;20625;-82
2022/09/27 00:29:58;;;;;;;201.20;62.47;;;8.60;99.90;;;;;;9844616;30;20119;-82
2022/09/27 00:34:58;;;;;;;297.13;68.03;;;8.50;99.90;;;;;;9856577;30;20623;-83
2022/09/27 00:39:59;;;;;;;98.87;37.50;;;8.50;99.90;;;;;;9844689;30;20043;-82
2022/09/27 00:45:10;;;;;;;220.67;54.50;;;8.30;99.90;;;;;;9859449;30;20060;-82
2022/09/27 00:50:28;;;;;;;88.90;36.93;;;8.20;99.90;;;;;;9860248;30;20035;-82
2022/09/27 00:55:33;;;;;;;187.07;52.43;;;8.20;99.90;;;;;;9864840;30;20101;-81
2022/09/27 01:00:37;;;;;;;100.73;51.33;;;8.20;99.90;;;;;;9861571;30;20450;-81
2022/09/27 01:05:39;;;;;;;85.57;37.97;;;8.20;99.90;;;;;;9850149;30;20320;-83
2022/09/27 01:10:50;;;;;;;141.13;42.27;;;8.20;99.90;;;;;;9866983;30;20144;-82
2022/09/27 01:16:12;;;;;;;177.80;47.47;;;8.20;99.90;;;;;;9866075;30;20047;-82
2022/09/27 01:21:27;;;;;;;75.80;29.47;;;8.10;99.90;;;;;;9861804;30;20040;-82
2022/09/27 01:26:43;;;;;;;104.83;37.17;;;8.00;99.90;;;;;;9865295;30;20043;-81
2022/09/27 01:32:25;;;;;;;137.45;41.00;;;7.80;99.90;;;;;;9861586;30;20297;-81
2022/09/27 01:37:58;;;;;;;144.57;42.33;;;7.60;99.90;;;;;;9736669;30;20068;-82
2022/09/27 01:43:08;;;;;;;70.37;28.47;;;7.60;99.90;;;;;;9864067;30;20090;-81
2022/09/27 01:48:18;;;;;;;151.90;40.73;;;7.60;99.90;;;;;;9864077;30;20039;-83
2022/09/27 01:53:37;;;;;;;162.23;41.70;;;7.60;99.90;;;;;;9864891;30;20074;-81
2022/09/27 01:58:46;;;;;;;116.57;33.37;;;7.70;99.90;;;;;;9847704;30;20050;-82
2022/09/27 02:03:49;;;;;;;70.10;29.70;;;7.80;99.90;;;;;;9861890;30;20063;-81
2022/09/27 02:08:59;;;;;;;164.63;37.97;;;7.80;99.90;;;;;;9848822;30;20043;-81
2022/09/27 02:14:21;;;;;;;86.63;32.97;;;7.90;99.90;;;;;;9864238;30;20044;-81
2022/09/27 02:19:37;;;;;;;151.33;38.90;;;7.90;99.90;;;;;;9859454;30;20417;-82
2022/09/27 02:24:51;;;;;;;183.32;41.65;;;7.90;99.90;;;;;;9863023;30;20051;-82
2022/09/27 02:30:10;;;;;;;62.30;26.27;;;7.80;99.90;;;;;;9858537;30;20457;-81
2022/09/27 02:35:30;;;;;;;57.07;25.93;;;7.90;99.90;;;;;;9863103;30;20036;-81
2022/09/27 02:40:34;;;;;;;99.93;32.70;;;7.80;99.90;;;;;;9842370;30;20043;-80
2022/09/27 02:46:04;;;;;;;46.00;21.30;;;7.80;99.90;;;;;;9858088;30;20039;-82
2022/09/27 02:51:11;;;;;;;71.93;26.63;;;7.70;99.90;;;;;;9838599;30;20058;-81
2022/09/27 02:56:49;;;;;;;56.97;25.50;;;7.60;99.90;;;;;;9862456;30;20052;-82
2022/09/27 03:02:05;;;;;;;50.00;24.57;;;7.40;99.90;;;;;;9856109;30;20049;-83
2022/09/27 03:07:06;;;;;;;38.23;21.57;;;7.30;99.90;;;;;;9860112;30;20421;-83
2022/09/27 03:12:07;;;;;;;35.87;21.37;;;7.10;99.90;;;;;;9861988;30;20035;-81
2022/09/27 03:17:07;;;;;;;44.53;23.60;;;7.00;99.90;;;;;;9861868;30;20075;-83
2022/09/27 03:22:08;;;;;;;48.77;23.17;;;7.00;99.90;;;;;;9854239;30;20126;-82
2022/09/27 03:27:11;;;;;;;54.77;25.93;;;6.90;99.90;;;;;;9858064;30;20111;-80
2022/09/27 03:32:11;;;;;;;38.43;22.17;;;6.80;99.90;;;;;;9859211;30;20140;-82
2022/09/27 03:37:12;;;;;;;57.97;26.70;;;6.80;99.90;;;;;;9855209;30;20040;-80
2022/09/27 03:42:12;;;;;;;116.73;34.73;;;6.70;99.90;;;;;;9861176;30;20032;-81
2022/09/27 03:47:13;;;;;;;87.30;33.30;;;6.70;99.90;;;;;;9858825;30;20350;-84
2022/09/27 03:52:15;;;;;;;147.97;36.03;;;6.70;99.90;;;;;;9846189;30;20078;-83
2022/09/27 03:57:16;;;;;;;98.07;32.77;;;6.80;99.90;;;;;;9865606;30;20473;-80
2022/09/27 04:02:16;;;;;;;70.00;27.50;;;6.80;99.90;;;;;;9842077;30;20162;-81
2022/09/27 04:07:17;;;;;;;124.10;34.67;;;6.70;99.90;;;;;;9844129;30;20478;-82
2022/09/27 04:12:18;;;;;;;128.10;36.80;;;6.70;99.90;;;;;;9843683;30;20096;-82
2022/09/27 04:17:18;;;;;;;81.50;28.87;;;6.60;99.90;;;;;;9842685;30;20044;-83
2022/09/27 04:22:19;;;;;;;110.00;34.27;;;6.50;99.90;;;;;;9859774;30;20111;-79
2022/09/27 04:27:21;;;;;;;142.93;35.97;;;6.50;99.90;;;;;;9868414;30;20035;-82
2022/09/27 04:32:22;;;;;;;94.97;31.17;;;6.60;99.90;;;;;;9868351;30;20416;-80
2022/09/27 04:37:23;;;;;;;193.33;38.73;;;6.70;99.90;;;;;;9868128;30;20035;-82
2022/09/27 04:42:23;;;;;;;122.30;33.70;;;6.80;99.90;;;;;;9851531;30;20507;-83
2022/09/27 04:47:24;;;;;;;91.63;30.20;;;6.80;99.90;;;;;;9867850;30;20046;-82
2022/09/27 04:52:24;;;;;;;74.27;28.23;;;6.80;99.90;;;;;;9867014;30;20036;-80
2022/09/27 04:57:25;;;;;;;51.60;27.00;;;6.80;99.90;;;;;;9867176;30;20039;-80
2022/09/27 05:02:27;;;;;;;58.30;28.23;;;6.90;99.90;;;;;;9867198;30;20056;-81
2022/09/27 05:07:28;;;;;;;114.03;34.23;;;6.90;99.90;;;;;;9867343;30;20545;-80
2022/09/27 05:12:29;;;;;;;81.07;32.27;;;6.90;99.90;;;;;;9866399;30;20093;-79
2022/09/27 05:17:29;;;;;;;62.13;30.53;;;6.90;99.90;;;;;;9866941;30;20047;-83
2022/09/27 05:22:30;;;;;;;55.57;28.90;;;7.00;99.90;;;;;;9850237;30;20040;-80
2022/09/27 05:27:31;;;;;;;67.27;33.33;;;7.20;99.90;;;;;;9866432;30;20503;-81
2022/09/27 05:32:31;;;;;;;45.37;26.47;;;7.40;99.90;;;;;;9849576;30;20032;-80
2022/09/27 05:37:32;;;;;;;55.03;31.80;;;7.60;99.90;;;;;;9865431;30;20047;-80
2022/09/27 05:42:33;;;;;;;50.17;30.37;;;7.80;99.90;;;;;;9865991;30;20031;-82
2022/09/27 05:47:34;;;;;;;68.90;38.10;;;8.00;99.90;;;;;;9865396;30;20439;-82
2022/09/27 05:52:34;;;;;;;98.03;54.83;;;8.20;99.90;;;;;;9865269;30;20044;-80
2022/09/27 05:57:35;;;;;;;59.90;35.23;;;8.40;99.90;;;;;;9849067;30;20043;-81
2022/09/27 06:02:36;;;;;;;58.00;33.67;;;8.60;99.90;;;;;;9864836;30;20489;-81
2022/09/27 06:07:36;;;;;;;53.00;30.50;;;8.80;99.90;;;;;;9864968;30;20114;-80
2022/09/27 06:12:37;;;;;;;59.23;32.97;;;8.90;99.90;;;;;;9864334;30;20035;-81
2022/09/27 06:17:37;;;;;;;52.07;31.20;;;9.00;99.90;;;;;;9864842;30;20052;-80
2022/09/27 06:22:38;;;;;;;45.17;29.43;;;9.20;99.90;;;;;;9864321;30;20406;-80
2022/09/27 06:27:39;;;;;;;50.37;30.90;;;9.30;99.90;;;;;;9848407;30;20477;-80
2022/09/27 06:32:39;;;;;;;63.37;36.23;;;9.50;99.90;;;;;;9847849;30;20413;-80
2022/09/27 06:37:40;;;;;;;46.00;28.63;;;9.60;99.90;;;;;;9863387;30;20118;-81
2022/09/27 06:42:40;;;;;;;47.17;30.47;;;9.80;99.90;;;;;;9863659;30;20035;-81
2022/09/27 06:47:41;;;;;;;46.40;28.83;;;9.90;99.90;;;;;;9863430;30;20455;-81
2022/09/27 06:52:48;;;;;;;63.72;36.85;;;10.10;99.90;;;;;;9861483;30;20040;-82
2022/09/27 07:03:13;;;;;;;48.55;32.63;;;10.40;99.90;;;;;;9863263;30;20060;-83
2022/09/27 07:08:13;;;;;;;53.83;35.42;;;10.50;99.90;;;;;;9862540;30;20024;-84
2022/09/27 07:13:14;;;;;;;56.30;34.80;;;10.70;99.90;;;;;;9846030;30;20040;-81
2022/09/27 07:18:14;;;;;;;48.10;31.30;;;11.00;99.90;;;;;;9862606;30;20044;-81
2022/09/27 07:23:16;;;;;;;54.83;33.13;;;11.20;99.90;;;;;;9862026;30;20408;-82
2022/09/27 07:28:18;;;;;;;48.28;34.85;;;11.50;99.90;;;;;;9862829;30;20606;-81
2022/09/27 07:33:18;;;;;;;42.92;31.80;;;11.80;99.90;;;;;;9862052;30;20119;-82
2022/09/27 07:38:19;;;;;;;45.40;29.92;;;12.10;99.90;;;;;;9845343;30;20078;-81
2022/09/27 07:43:20;;;;;;;59.25;36.22;;;12.40;99.90;;;;;;9862014;30;20162;-82
2022/09/27 07:48:20;;;;;;;40.70;28.15;;;12.70;99.90;;;;;;9861477;30;20827;-81
2022/09/27 07:53:23;;;;;;;31.80;22.90;;;13.00;99.90;;;;;;9861215;30;20043;-83
2022/09/27 07:58:23;;;;;;;30.27;21.30;;;13.30;99.90;;;;;;9860564;30;20039;-82
2022/09/27 08:03:24;;;;;;;23.25;15.77;;;13.50;99.90;;;;;;9860952;30;20481;-82
2022/09/27 08:08:25;;;;;;;20.23;13.93;;;13.60;99.90;;;;;;9861204;30;20173;-82
2022/09/27 08:13:26;;;;;;;17.20;12.90;;;13.80;99.90;;;;;;9860621;30;20056;-82
2022/09/27 08:18:27;;;;;;;19.63;13.05;;;14.00;99.90;;;;;;9860947;30;20090;-81
2022/09/27 08:23:28;;;;;;;20.40;14.07;;;14.20;99.90;;;;;;9861599;30;20472;-82
2022/09/27 08:28:29;;;;;;;18.58;13.82;;;14.40;99.90;;;;;;9860431;30;20130;-82
2022/09/27 08:33:29;;;;;;;20.15;13.60;;;14.70;99.90;;;;;;9860607;30;20565;-82
2022/09/27 08:38:30;;;;;;;15.15;11.10;;;15.10;99.90;;;;;;9860253;30;20039;-82
2022/09/27 08:44:01;;;;;;;13.73;10.35;;;15.40;99.90;;;;;;9844704;30;20050;-82
2022/09/27 08:49:09;;;;;;;14.32;9.27;;;15.60;99.90;;;;;;9861084;30;20493;-82
2022/09/27 08:54:19;;;;;;;11.77;8.43;;;15.70;99.90;;;;;;9862360;30;20071;-82
2022/09/27 08:59:24;;;;;;;11.07;7.57;;;16.00;99.90;;;;;;9862648;30;20681;-82
2022/09/27 09:04:33;;;;;;;13.48;8.40;;;16.20;99.90;;;;;;9862519;30;20120;-82
2022/09/27 09:10:11;;;;;;;12.57;7.53;;;16.40;99.90;;;;;;9863566;30;20118;-82
2022/09/27 09:15:31;;;;;;;14.38;7.43;;;16.60;99.90;;;;;;9851678;30;20039;-82
2022/09/27 09:20:57;;;;;;;9.32;7.00;;;16.90;99.90;;;;;;9862820;30;20404;-81
2022/09/27 09:26:16;;;;;;;12.75;7.75;;;17.00;99.90;;;;;;9866417;30;20558;-82
2022/09/27 09:31:28;;;;;;;12.77;7.35;;;17.30;99.90;;;;;;9869697;30;20031;-82
2022/09/27 09:36:41;;;;;;;10.27;6.72;;;17.30;99.90;;;;;;9867153;30;20128;-82
2022/09/27 09:42:07;;;;;;;9.05;5.40;;;17.40;99.90;;;;;;9864675;30;20035;-82
2022/09/27 09:47:35;;;;;;;10.73;5.75;;;17.60;99.90;;;;;;9868255;30;20099;-82
2022/09/27 09:52:44;;;;;;;6.85;5.15;;;17.90;99.90;;;;;;9852266;30;20142;-82
2022/09/27 09:57:52;;;;;;;9.48;6.47;;;18.00;99.90;;;;;;9867517;30;20405;-83
2022/09/27 10:02:56;;;;;;;7.15;5.00;;;18.20;99.90;;;;;;9859874;30;20064;-83
2022/09/27 10:08:05;;;;;;;7.20;5.37;;;18.30;99.90;;;;;;9865639;30;20068;-81
2022/09/27 10:13:14;;;;;;;5.78;4.60;;;18.50;99.90;;;;;;9865634;30;20041;-82
2022/09/27 10:18:18;;;;;;;3.95;3.33;;;18.60;99.90;;;;;;9864349;30;20626;-81
2022/09/27 10:23:22;;;;;;;5.85;4.75;;;18.60;99.90;;;;;;9863870;30;20552;-82
2022/09/27 10:28:42;;;;;;;8.07;4.47;;;18.50;99.90;;;;;;9865094;30;20687;-82
2022/09/27 10:33:56;;;;;;;5.25;4.10;;;18.30;99.90;;;;;;9864608;30;20154;-82
2022/09/27 10:39:03;;;;;;;5.72;3.97;;;18.10;99.90;;;;;;9864221;30;20081;-81
2022/09/27 10:44:31;;;;;;;7.05;4.15;;;18.00;99.90;;;;;;9860436;30;20122;-81
2022/09/27 10:49:35;;;;;;;5.25;3.72;;;17.90;98.20;;;;;;9852701;30;20562;-81
2022/09/27 10:54:38;;;;;;;6.68;3.55;;;18.10;99.90;;;;;;9863429;30;20138;-81
2022/09/27 10:59:45;;;;;;;7.38;3.05;;;18.50;98.90;;;;;;9863135;30;20114;-80
2022/09/27 11:05:03;;;;;;;3.70;3.30;;;18.90;98.30;;;;;;9863071;30;20078;-81
2022/09/27 11:10:27;;;;;;;3.58;3.08;;;19.00;97.30;;;;;;9857639;30;20035;-81
2022/09/27 11:15:29;;;;;;;4.57;3.50;;;19.00;94.90;;;;;;9862767;30;20043;-82
2022/09/27 11:20:55;;;;;;;4.00;3.38;;;18.90;95.70;;;;;;9862424;30;20044;-81
2022/09/27 11:26:07;;;;;;;4.87;2.97;;;18.80;95.40;;;;;;9859205;30;20038;-81
2022/09/27 11:31:17;;;;;;;3.28;2.78;;;18.80;95.60;;;;;;9862490;30;20047;-82
2022/09/27 11:36:54;;;;;;;6.68;3.13;;;18.80;94.10;;;;;;9857043;30;20051;-81
2022/09/27 11:42:34;;;;;;;4.97;3.22;;;18.70;93.40;;;;;;9861648;30;20043;-82
2022/09/27 11:47:59;;;;;;;4.18;3.03;;;18.80;94.30;;;;;;9861754;30;20069;-80
2022/09/27 11:53:21;;;;;;;4.88;3.90;;;18.80;94.00;;;;;;9861732;30;20412;-83
2022/09/27 11:58:28;;;;;;;9.23;5.18;;;18.70;94.60;;;;;;9856030;30;20158;-81
2022/09/27 12:03:50;;;;;;;4.90;3.60;;;18.70;93.30;;;;;;9861389;30;20264;-82
2022/09/27 12:09:12;;;;;;;8.57;4.28;;;18.60;94.40;;;;;;9860992;30;20093;-81
2022/09/27 12:14:35;;;;;;;4.90;3.80;;;18.40;94.60;;;;;;9858420;30;20162;-82
2022/09/27 12:19:40;;;;;;;7.25;4.32;;;18.20;94.40;;;;;;9861336;30;20032;-82
2022/09/27 12:24:43;;;;;;;5.53;4.00;;;18.00;95.00;;;;;;9861044;30;20036;-80
2022/09/27 12:29:47;;;;;;;4.40;3.38;;;17.80;93.70;;;;;;9860812;30;20075;-80
2022/09/27 12:34:55;;;;;;;4.80;3.80;;;17.60;94.50;;;;;;9859715;30;20464;-82
2022/09/27 12:40:14;;;;;;;5.03;3.50;;;17.40;94.20;;;;;;9854561;30;20036;-81
2022/09/27 12:45:20;;;;;;;11.68;5.00;;;17.50;95.10;;;;;;9863934;30;20415;-80
2022/09/27 12:50:32;;;;;;;6.97;4.82;;;17.40;94.70;;;;;;9867620;30;20096;-83
2022/09/27 12:56:05;;;;;;;4.93;3.75;;;17.30;95.60;;;;;;9866388;30;20093;-81
2022/09/27 13:01:43;;;;;;;8.13;4.80;;;17.10;96.90;;;;;;9852585;30;20039;-81
2022/09/27 13:06:57;;;;;;;7.35;5.03;;;16.60;99.20;;;;;;9863113;30;20075;-80
2022/09/27 13:12:20;;;;;;;8.73;7.15;;;16.00;99.90;;;;;;9865334;30;20811;-83
2022/09/27 13:17:45;;;;;;;10.48;8.50;;;15.70;99.90;;;;;;9861232;30;20044;-81
2022/09/27 13:22:45;;;;;;;9.77;7.20;;;15.50;99.90;;;;;;9849898;30;20055;-81
2022/09/27 13:27:46;;;;;;;10.07;7.20;;;15.40;99.90;;;;;;9866017;30;20043;-82
2022/09/27 13:33:08;;;;;;;20.48;11.30;;;15.10;99.90;;;;;;9860638;30;20040;-81
2022/09/27 13:38:22;;;;;;;21.98;13.77;;;14.80;99.90;;;;;;9845460;30;20051;-82
2022/09/27 13:43:40;;;;;;;17.13;10.55;;;14.30;99.90;;;;;;9843859;30;20119;-80
2022/09/27 13:49:13;;;;;;;18.05;9.73;;;13.90;99.90;;;;;;9865853;30;20075;-80
2022/09/27 13:54:32;;;;;;;14.18;9.07;;;13.60;99.90;;;;;;9865131;30;20572;-80
2022/09/27 13:59:42;;;;;;;11.45;7.20;;;13.50;99.90;;;;;;9862740;30;20047;-81
2022/09/27 14:04:51;;;;;;;33.42;21.33;;;13.40;99.90;;;;;;9857783;30;20075;-80
2022/09/27 14:09:55;;;;;;;27.10;18.38;;;13.30;99.90;;;;;;9861577;30;20035;-81
2022/09/27 14:14:56;;;;;;;36.00;21.65;;;13.40;99.90;;;;;;9845649;30;20036;-80
2022/09/27 14:19:57;;;;;;;74.90;42.03;;;13.40;99.90;;;;;;9860602;30;20071;-81
2022/09/27 14:24:58;;;;;;;63.40;37.70;;;13.50;99.90;;;;;;9861330;30;20050;-81
2022/09/27 14:30:08;;;;;;;66.78;40.65;;;13.50;99.90;;;;;;9855542;30;20382;-81
2022/09/27 14:40:42;;;;;;;61.58;38.00;;;13.50;99.90;;;;;;9862134;30;20043;-80
2022/09/27 14:45:45;;;;;;;27.35;15.70;;;13.50;99.90;;;;;;9863767;30;20748;-81
2022/09/27 14:51:04;;;;;;;36.58;25.02;;;13.50;99.90;;;;;;9860318;30;20386;-82
2022/09/27 14:56:06;;;;;;;9.50;6.18;;;13.40;99.90;;;;;;9845125;30;20072;-82
2022/09/27 15:01:17;;;;;;;14.00;7.88;;;12.90;99.90;;;;;;9862829;30;20148;-83
2022/09/27 15:06:19;;;;;;;15.98;8.38;;;12.40;99.90;;;;;;9859245;30;20052;-82
2022/09/27 15:11:20;;;;;;;21.60;12.82;;;12.00;99.90;;;;;;9861656;30;20051;-79
2022/09/27 15:16:22;;;;;;;34.55;23.00;;;11.80;99.90;;;;;;9860238;30;20043;-81
2022/09/27 15:21:32;;;;;;;31.17;18.17;;;11.70;99.90;;;;;;9861252;30;20036;-82
2022/09/27 15:26:44;;;;;;;25.52;19.30;;;11.60;99.90;;;;;;9858263;30;20035;-83
2022/09/27 15:31:57;;;;;;;26.75;17.73;;;11.50;99.90;;;;;;9855171;30;20036;-80
2022/09/27 15:37:05;;;;;;;22.60;12.88;;;11.50;99.90;;;;;;9861169;30;20888;-83
2022/09/27 15:42:16;;;;;;;26.05;15.90;;;11.60;99.90;;;;;;9854499;30;20024;-80
2022/09/27 15:47:36;;;;;;;24.25;13.55;;;11.60;99.90;;;;;;9850911;30;20444;-81
2022/09/27 15:52:52;;;;;;;38.15;26.27;;;11.60;99.90;;;;;;9863551;30;20130;-80
2022/09/27 15:58:04;;;;;;;27.02;16.20;;;11.70;99.90;;;;;;9842371;30;20071;-80
2022/09/27 16:03:04;;;;;;;26.40;14.80;;;11.60;99.90;;;;;;9845311;30;20604;-81
2022/09/27 16:08:07;;;;;;;41.95;26.15;;;11.60;99.90;;;;;;9863161;30;20040;-80
2022/09/27 16:13:08;;;;;;;73.82;37.30;;;11.60;99.90;;;;;;9856576;30;20119;-79
2022/09/27 16:18:09;;;;;;;79.63;37.55;;;11.50;99.90;;;;;;9860000;30;20050;-80
2022/09/27 16:23:10;;;;;;;83.97;38.50;;;11.40;99.90;;;;;;9867559;30;20043;-79
2022/09/27 16:28:11;;;;;;;342.52;219.68;;;11.40;99.90;;;;;;9851624;30;20584;-79
2022/09/27 16:33:12;;;;;;;133.10;74.38;;;11.50;99.90;;;;;;9867444;30;20048;-80
2022/09/27 16:38:12;;;;;;;107.70;49.72;;;11.50;99.90;;;;;;9849635;30;20495;-79
2022/09/27 16:43:13;;;;;;;81.82;41.47;;;11.50;99.90;;;;;;9860241;30;20050;-79
2022/09/27 16:48:13;;;;;;;241.45;104.43;;;11.40;99.90;;;;;;9866974;30;20400;-80
2022/09/27 16:53:14;;;;;;;91.22;50.05;;;11.40;99.90;;;;;;9865746;30;20036;-79
2022/09/27 16:58:14;;;;;;;241.98;116.07;;;11.40;99.90;;;;;;9849926;30;20408;-80
2022/09/27 17:03:15;;;;;;;166.25;74.53;;;11.40;99.90;;;;;;9865184;30;20059;-81
2022/09/27 17:08:16;;;;;;;265.33;110.32;;;11.50;99.90;;;;;;9864890;30;20499;-80
2022/09/27 17:13:17;;;;;;;84.88;45.15;;;11.40;99.90;;;;;;9865952;30;20040;-79
2022/09/27 17:18:17;;;;;;;102.95;44.20;;;11.40;99.90;;;;;;9865613;30;20532;-80
2022/09/27 17:23:18;;;;;;;146.10;66.32;;;11.40;99.90;;;;;;9866104;30;20054;-80
2022/09/27 17:28:18;;;;;;;103.10;49.00;;;11.40;99.90;;;;;;9865183;30;20044;-80
2022/09/27 17:33:20;;;;;;;212.00;89.93;;;11.40;99.90;;;;;;9848786;30;20405;-78
2022/09/27 17:38:21;;;;;;;245.52;102.38;;;11.40;99.90;;;;;;9862434;30;20493;-80
2022/09/27 17:43:23;;;;;;;189.20;80.35;;;11.40;99.90;;;;;;9847375;30;20044;-78
2022/09/27 17:53:43;;;;;;;193.13;80.97;;;11.40;99.90;;;;;;9864095;30;20052;-78
2022/09/27 17:58:46;;;;;;;179.27;76.32;;;11.40;99.90;;;;;;9865797;30;20046;-79
2022/09/27 18:03:47;;;;;;;131.57;61.53;;;11.40;99.90;;;;;;9863834;30;20063;-81
2022/09/27 18:08:49;;;;;;;138.55;67.15;;;11.40;99.90;;;;;;9861125;30;20129;-80
2022/09/27 18:13:50;;;;;;;121.32;63.83;;;11.40;99.90;;;;;;9862749;30;20512;-81
2022/09/27 18:18:51;;;;;;;108.90;59.47;;;11.40;99.90;;;;;;9862667;30;20054;-80
2022/09/27 18:23:55;;;;;;;179.25;79.55;;;11.40;99.90;;;;;;9861049;30;20485;-81
2022/09/27 18:29:01;;;;;;;186.02;79.85;;;11.40;99.90;;;;;;9863457;30;20040;-80
2022/09/27 18:34:01;;;;;;;111.43;57.90;;;11.40;99.90;;;;;;9863978;30;20040;-79
2022/09/27 18:39:05;;;;;;;108.82;54.38;;;11.30;99.90;;;;;;9862341;30;20051;-79
2022/09/27 18:44:05;;;;;;;107.00;53.88;;;11.30;99.90;;;;;;9846305;30;20475;-82
2022/09/27 18:49:09;;;;;;;91.60;47.55;;;11.30;99.90;;;;;;9861394;30;20039;-80
2022/09/27 18:54:18;;;;;;;143.68;64.43;;;11.30;99.90;;;;;;9848008;30;20532;-80
2022/09/27 18:59:20;;;;;;;105.82;53.95;;;11.30;99.90;;;;;;9862231;30;20079;-81
2022/09/27 19:04:23;;;;;;;96.75;46.30;;;11.20;99.90;;;;;;9860637;30;20055;-80
2022/09/27 19:09:27;;;;;;;72.57;37.45;;;11.20;99.90;;;;;;9858310;30;20396;-84
2022/09/27 19:14:28;;;;;;;77.70;38.47;;;11.20;99.90;;;;;;9860051;30;20477;-81
2022/09/27 19:19:29;;;;;;;101.78;50.42;;;11.20;99.90;;;;;;9858561;30;20396;-80
2022/09/27 19:24:29;;;;;;;79.20;44.45;;;11.20;99.90;;;;;;9857795;30;20047;-82
2022/09/27 19:29:31;;;;;;;83.75;43.58;;;11.20;99.90;;;;;;9854578;30;20108;-81
2022/09/27 19:34:32;;;;;;;65.20;33.50;;;11.20;99.90;;;;;;9859674;30;20044;-81
2022/09/27 19:39:32;;;;;;;63.10;33.13;;;11.30;99.90;;;;;;9859110;30;20047;-80
2022/09/27 19:44:33;;;;;;;80.10;39.65;;;11.20;99.90;;;;;;9860105;30;20035;-80
2022/09/27 19:49:33;;;;;;;75.80;38.78;;;11.20;99.90;;;;;;9859223;30;20401;-81
2022/09/27 19:54:34;;;;;;;73.28;36.58;;;11.20;99.90;;;;;;9859160;30;20050;-79
2022/09/27 19:59:34;;;;;;;72.70;39.58;;;11.20;99.90;;;;;;9857635;30;20106;-80
2022/09/27 20:04:35;;;;;;;82.55;45.22;;;11.20;99.90;;;;;;9806974;30;1114118;-82
2022/09/27 20:09:35;;;;;;;94.28;50.67;;;11.20;99.90;;;;;;9860732;30;20251;-79
2022/09/27 20:14:39;;;;;;;96.82;52.22;;;11.20;99.90;;;;;;9860486;30;20039;-82
2022/09/27 20:19:39;;;;;;;89.60;49.45;;;11.20;99.90;;;;;;9861177;30;20560;-81
2022/09/27 20:24:40;;;;;;;94.13;48.10;;;11.20;99.90;;;;;;9860660;30;20044;-80
2022/09/27 20:29:40;;;;;;;85.18;45.35;;;11.20;99.90;;;;;;9844868;30;20164;-80
2022/09/27 20:34:41;;;;;;;81.05;45.67;;;11.10;99.90;;;;;;9860354;30;20051;-81
2022/09/27 20:39:42;;;;;;;74.57;42.63;;;11.10;99.90;;;;;;9859272;30;20040;-80
2022/09/27 20:44:42;;;;;;;88.47;49.40;;;11.00;99.90;;;;;;9860531;30;20442;-82
2022/09/27 20:49:43;;;;;;;77.70;45.40;;;11.00;99.90;;;;;;9859733;30;20092;-80
2022/09/27 20:54:43;;;;;;;84.75;45.75;;;11.00;99.90;;;;;;9855970;30;20079;-80
2022/09/27 20:59:44;;;;;;;89.35;49.80;;;10.90;99.90;;;;;;9857344;30;20603;-80
2022/09/27 21:04:44;;;;;;;88.32;51.03;;;11.00;99.90;;;;;;9844160;30;20059;-81
2022/09/27 21:09:45;;;;;;;71.32;40.33;;;10.90;99.90;;;;;;9867336;30;20458;-80
2022/09/27 21:14:45;;;;;;;74.50;41.40;;;10.90;99.90;;;;;;9864642;30;20199;-81
2022/09/27 21:19:46;;;;;;;69.35;39.10;;;10.90;99.90;;;;;;9866243;30;20119;-81
2022/09/27 21:24:46;;;;;;;65.53;35.90;;;10.90;99.90;;;;;;9866072;30;20039;-80
2022/09/27 21:29:47;;;;;;;71.25;37.97;;;10.80;99.90;;;;;;9867555;30;20035;-79
2022/09/27 21:34:48;;;;;;;71.93;38.70;;;10.80;99.90;;;;;;9865362;30;20507;-80
2022/09/27 21:39:48;;;;;;;78.80;43.95;;;10.80;99.90;;;;;;9865345;30;20051;-80
2022/09/27 21:44:49;;;;;;;82.72;41.33;;;10.80;99.90;;;;;;9866696;30;20794;-80
2022/09/27 21:49:49;;;;;;;92.22;46.53;;;10.70;99.90;;;;;;9864263;30;20044;-81
2022/09/27 21:54:50;;;;;;;81.43;42.17;;;10.60;99.90;;;;;;9864035;30;20112;-81
2022/09/27 21:59:50;;;;;;;83.38;46.05;;;10.60;99.90;;;;;;9865770;30;20695;-81
2022/09/27 22:04:51;;;;;;;79.10;43.70;;;10.60;99.90;;;;;;9864416;30;20147;-81
2022/09/27 22:09:51;;;;;;;73.38;40.92;;;10.50;99.90;;;;;;9864761;30;20040;-81
2022/09/27 22:14:52;;;;;;;73.63;42.05;;;10.50;99.90;;;;;;9864917;30;20127;-80
2022/09/27 22:19:52;;;;;;;73.60;42.60;;;10.60;99.90;;;;;;9862402;30;20042;-80
2022/09/27 22:24:53;;;;;;;67.38;39.63;;;10.50;99.90;;;;;;9859972;30;20367;-81
2022/09/27 22:29:53;;;;;;;73.60;40.58;;;10.50;99.90;;;;;;9863467;30;20047;-79
2022/09/27 22:34:54;;;;;;;86.28;44.50;;;10.50;99.90;;;;;;9847849;30;20036;-81
2022/09/27 22:39:55;;;;;;;79.50;45.50;;;10.50;99.90;;;;;;9862930;30;20444;-82
2022/09/27 22:44:56;;;;;;;91.13;49.55;;;10.50;99.90;;;;;;9863610;30;20131;-79
2022/09/27 22:49:57;;;;;;;82.70;46.67;;;10.40;99.90;;;;;;9859865;30;20162;-82
2022/09/27 22:54:58;;;;;;;81.07;42.85;;;10.40;99.90;;;;;;9863999;30;20036;-81
2022/09/27 22:59:58;;;;;;;71.05;37.72;;;10.40;99.90;;;;;;9863029;30;20050;-81
2022/09/27 23:04:59;;;;;;;116.05;47.97;;;10.30;99.90;;;;;;9862310;30;20572;-79
2022/09/27 23:09:59;;;;;;;113.20;45.53;;;10.20;99.90;;;;;;9862830;30;20046;-81
2022/09/27 23:15:00;;;;;;;87.78;40.92;;;10.00;99.90;;;;;;9862048;30;20047;-81
2022/09/27 23:20:01;;;;;;;129.43;47.00;;;9.80;99.90;;;;;;9858664;30;20047;-79
2022/09/27 23:25:02;;;;;;;118.80;46.43;;;9.70;99.90;;;;;;9846070;30;20028;-80
2022/09/27 23:30:03;;;;;;;121.13;46.03;;;9.60;99.90;;;;;;9845327;30;20051;-82
2022/09/27 23:35:04;;;;;;;80.63;41.37;;;9.40;99.90;;;;;;9845452;30;20065;-79
2022/09/27 23:40:06;;;;;;;125.83;52.13;;;9.30;99.90;;;;;;9845179;30;20031;-82
2022/09/27 23:45:07;;;;;;;68.33;40.13;;;9.30;99.90;;;;;;9856689;30;20040;-78
2022/09/27 23:50:08;;;;;;;129.93;53.27;;;9.20;99.90;;;;;;9861936;30;20566;-79
2022/09/27 23:55:09;;;;;;;74.13;38.93;;;9.20;99.90;;;;;;9845707;30;20047;-81
